Open Full Screen Window  High Contrast Mode
June 20, 2018 3:23 AM EDT
Weather Information
Wind Direction
  ---
Wind Speed
  00 kt (0 mph)
Wind Gust
  00 kt (0 mph)
Altimeter
29.90 in
Visibility
7 SM
Temperature
21° C
70° F
Dewpoint
21° C
70° F
Humidity
100%
1hr Rain Fall
00.00 in.
24hr Rain Fall
00.21 in.
Sky Condition
Broken @ 6,500 ft
VFR

METAR KDLZ 200723Z AUTO 00000KT 7SM BKN065 21/21 A2990 RMK AO2

FAA Disclaimer: The data displayed is for advisory purposes only and is not to be used for flight planning or operations.